Time;durP1;ratioP1;P1;durP2;ratioP2;P2;SDS_P1;SDS_P2;PMS_P1;PMS_P2;Temp;Humidity;BMP_temperature;BMP_pressure;BME280_temperature;BME280_humidity;BME280_pressure;Samples;Min_cycle;Max_cycle;Signal;HPM_P1;HPM_P2
2022/01/16 00:07:46;;;;;;;17.95;16.00;;;;;;;3.89;79.33;100963.97;10503233;28;20345;-71
2022/01/16 00:12:49;;;;;;;18.50;16.65;;;;;;;3.80;79.78;100985.41;10472300;28;20071;-70
2022/01/16 00:17:55;;;;;;;19.05;17.02;;;;;;;3.84;79.68;101006.31;10481584;28;20040;-71
2022/01/16 00:22:57;;;;;;;21.40;19.10;;;;;;;3.93;79.59;101012.13;10474243;28;20051;-68
2022/01/16 00:27:59;;;;;;;21.70;19.35;;;;;;;3.83;79.76;101012.50;10480186;28;20094;-67
2022/01/16 00:33:01;;;;;;;20.42;18.33;;;;;;;3.80;80.38;100983.63;10472504;28;20041;-70
2022/01/16 00:38:02;;;;;;;20.73;18.25;;;;;;;3.51;80.78;100948.81;10466016;28;20112;-70
2022/01/16 00:43:04;;;;;;;21.38;18.38;;;;;;;3.69;81.13;100972.66;10490135;28;20515;-70
2022/01/16 00:48:06;;;;;;;23.08;20.58;;;;;;;3.71;80.68;100974.34;10483673;28;22726;-70
2022/01/16 00:53:08;;;;;;;24.35;19.23;;;;;;;3.74;80.63;100989.16;10502950;28;20083;-71
2022/01/16 00:58:10;;;;;;;26.25;22.05;;;;;;;3.69;80.76;100999.00;10511719;28;20040;-70
2022/01/16 01:03:11;;;;;;;28.30;25.35;;;;;;;3.73;80.97;101003.25;10510480;28;20379;-69
2022/01/16 01:08:12;;;;;;;26.08;23.42;;;;;;;3.83;80.87;101009.84;10488389;28;20099;-71
2022/01/16 01:13:32;;;;;;;25.75;22.95;;;;;;;3.82;81.02;100979.16;10470441;28;20514;-70
2022/01/16 01:18:34;;;;;;;23.98;20.20;;;;;;;3.77;81.12;100991.66;10478210;28;20536;-69
2022/01/16 01:23:35;;;;;;;21.92;17.83;;;;;;;3.54;81.88;100996.06;10485146;28;20317;-68
2022/01/16 01:28:36;;;;;;;22.95;19.67;;;;;;;3.45;82.70;100935.91;10471991;28;20048;-70
2022/01/16 01:33:38;;;;;;;25.60;19.13;;;;;;;3.58;82.57;100886.22;10474002;28;20775;-69
2022/01/16 01:38:39;;;;;;;23.02;17.65;;;;;;;3.68;82.08;100882.28;10483413;28;20263;-70
2022/01/16 01:54:07;;;;;;;21.40;17.33;;;;;;;3.64;82.90;100969.38;10478456;28;20071;-70
2022/01/16 01:59:10;;;;;;;21.85;17.27;;;;;;;3.69;82.48;100977.94;10485703;28;20102;-68
2022/01/16 02:04:11;;;;;;;19.42;14.45;;;;;;;3.44;82.55;100973.66;10483714;28;20139;-69
2022/01/16 02:09:13;;;;;;;18.92;13.68;;;;;;;3.34;83.01;100967.03;10482956;28;20050;-70
2022/01/16 02:14:29;;;;;;;14.95;11.75;;;;;;;3.24;82.49;100976.19;10481485;28;20455;-70
2022/01/16 02:31:02;;;;;;;19.85;12.95;;;;;;;3.22;83.60;101007.84;10474464;28;20250;-70
2022/01/16 02:35:32;;;;;;;18.85;13.70;;;;;;;3.15;84.07;100998.44;10489604;28;20044;-72
2022/01/16 02:40:36;;;;;;;20.33;15.27;;;;;;;3.21;84.69;100992.09;10506770;28;20048;-68
2022/01/16 02:45:44;;;;;;;21.20;16.23;;;;;;;3.23;84.55;100969.22;10489872;28;20048;-70
2022/01/16 02:50:48;;;;;;;25.58;19.05;;;;;;;3.11;85.03;100971.41;10481130;28;20048;-70
2022/01/16 02:55:51;;;;;;;22.23;17.27;;;;;;;3.14;85.58;100954.66;10482709;28;20048;-71
2022/01/16 03:00:52;;;;;;;30.42;19.73;;;;;;;3.00;84.99;100931.50;10479140;28;20762;-70
2022/01/16 03:05:54;;;;;;;29.75;19.92;;;;;;;3.10;84.99;100935.50;10505079;28;20040;-71
2022/01/16 03:16:13;;;;;;;27.88;19.17;;;;;;;3.14;85.11;100910.78;10511592;28;20051;-70
2022/01/16 03:26:34;;;;;;;33.75;22.17;;;;;;;3.25;84.19;100904.25;10477390;28;20080;-69
2022/01/16 03:31:36;;;;;;;34.03;22.20;;;;;;;3.31;83.74;100909.25;10486194;28;20411;-69
2022/01/16 03:36:37;;;;;;;32.80;21.02;;;;;;;3.16;83.63;100906.31;10475906;28;20152;-70
2022/01/16 03:41:39;;;;;;;31.90;20.38;;;;;;;3.17;84.12;100900.13;10471262;28;20128;-70
2022/01/16 03:46:43;;;;;;;35.92;21.25;;;;;;;2.90;84.50;100890.69;10470697;28;20140;-70
2022/01/16 03:51:46;;;;;;;32.20;20.17;;;;;;;2.97;84.86;100900.03;10483755;28;20139;-70
2022/01/16 03:56:48;;;;;;;31.27;20.02;;;;;;;3.07;84.98;100914.56;10472081;28;20074;-69
2022/01/16 04:01:50;;;;;;;33.42;20.70;;;;;;;3.08;84.60;100892.63;10472283;28;20052;-69
2022/01/16 04:06:52;;;;;;;35.70;22.20;;;;;;;3.05;85.33;100899.75;10489623;28;20052;-70
2022/01/16 04:11:56;;;;;;;34.85;22.63;;;;;;;3.03;86.43;100914.75;10464004;28;20496;-70
2022/01/16 04:16:57;;;;;;;35.73;23.23;;;;;;;2.88;86.17;100889.88;10481024;22;20795;-60
2022/01/16 04:21:59;;;;;;;40.58;25.38;;;;;;;2.88;86.02;100895.16;10478449;28;20525;-60
2022/01/16 04:27:01;;;;;;;40.13;26.13;;;;;;;3.06;85.42;100919.88;10479878;28;20131;-59
2022/01/16 04:32:04;;;;;;;43.42;26.75;;;;;;;3.01;86.58;100907.75;10491764;28;20128;-60
2022/01/16 04:37:06;;;;;;;38.67;24.15;;;;;;;2.95;86.92;100875.59;10488045;28;20051;-60
2022/01/16 04:47:29;;;;;;;28.90;18.55;;;;;;;2.92;85.49;100862.56;10485283;28;20102;-59
2022/01/16 04:52:30;;;;;;;20.60;14.18;;;;;;;2.93;84.75;100873.03;10467686;28;20132;-60
2022/01/16 04:57:31;;;;;;;23.17;14.82;;;;;;;2.82;85.21;100838.38;10487729;28;20466;-60
2022/01/16 05:02:33;;;;;;;22.25;16.35;;;;;;;3.13;84.69;100866.97;10482602;28;20127;-59
2022/01/16 05:07:34;;;;;;;24.83;16.88;;;;;;;3.19;83.73;100864.09;10488097;28;20134;-60
2022/01/16 05:12:39;;;;;;;22.75;16.65;;;;;;;3.09;82.74;100885.56;10490049;28;20135;-59
2022/01/16 05:17:40;;;;;;;23.35;16.55;;;;;;;2.79;83.65;100876.19;10471988;28;20059;-60
2022/01/16 05:22:42;;;;;;;23.50;16.70;;;;;;;2.68;84.30;100895.91;10466402;28;20553;-60
2022/01/16 05:27:43;;;;;;;21.85;16.02;;;;;;;2.73;84.00;100912.34;10487807;28;20526;-60
2022/01/16 05:32:45;;;;;;;24.52;16.58;;;;;;;2.51;83.63;100896.50;10483686;28;20275;-61
2022/01/16 05:37:46;;;;;;;20.48;15.13;;;;;;;2.60;82.68;100914.59;10473616;28;20048;-61
2022/01/16 05:42:47;;;;;;;22.90;15.52;;;;;;;2.69;82.09;100924.78;10484147;28;20048;-60
2022/01/16 05:47:49;;;;;;;18.88;14.18;;;;;;;2.96;81.67;100927.28;10487998;28;20055;-60
2022/01/16 05:52:50;;;;;;;19.92;14.73;;;;;;;2.76;80.08;100907.88;10482894;28;20132;-60
2022/01/16 05:57:51;;;;;;;19.30;14.38;;;;;;;2.60;79.46;100927.75;10465853;28;20135;-62
2022/01/16 06:02:53;;;;;;;20.30;14.20;;;;;;;2.77;79.76;100917.44;10479038;28;20079;-60
2022/01/16 06:08:00;;;;;;;20.08;16.08;;;;;;;2.73;79.63;100921.13;10470401;28;20497;-60
2022/01/16 06:13:02;;;;;;;20.80;16.52;;;;;;;2.77;79.87;100920.06;10482359;28;20052;-60
2022/01/16 06:18:03;;;;;;;20.42;13.70;;;;;;;2.61;78.50;100903.16;10476984;28;20781;-60
2022/01/16 06:23:05;;;;;;;17.15;12.68;;;;;;;2.86;78.53;100923.28;10472365;28;20062;-60
2022/01/16 06:28:06;;;;;;;15.45;11.57;;;;;;;3.05;78.24;100931.31;10480241;28;20078;-60
2022/01/16 06:33:09;;;;;;;14.68;11.27;;;;;;;2.73;77.13;100944.78;10478500;28;20102;-61
2022/01/16 06:38:11;;;;;;;14.43;10.27;;;;;;;2.50;78.32;100960.53;10491109;28;20329;-60
2022/01/16 06:43:13;;;;;;;13.27;10.18;;;;;;;2.58;77.61;100934.81;10491442;28;20109;-60
2022/01/16 06:48:14;;;;;;;11.52;9.27;;;;;;;2.50;77.68;100964.00;10489336;28;20048;-60
2022/01/16 06:53:16;;;;;;;11.57;9.98;;;;;;;2.75;77.91;100963.13;10488987;28;20055;-60
2022/01/16 06:58:17;;;;;;;11.95;9.73;;;;;;;2.72;77.26;100965.84;10475032;28;20048;-59
2022/01/16 07:03:18;;;;;;;12.00;9.27;;;;;;;2.83;77.54;100966.31;10489391;28;20050;-60
2022/01/16 07:08:23;;;;;;;14.98;11.27;;;;;;;2.92;77.59;100959.88;10471564;28;20123;-60
2022/01/16 07:13:25;;;;;;;11.82;9.60;;;;;;;3.05;76.63;100970.78;10485692;28;20498;-59
2022/01/16 07:18:27;;;;;;;12.90;10.88;;;;;;;2.75;78.64;100992.06;10495182;28;20192;-60
2022/01/16 07:23:29;;;;;;;12.20;10.13;;;;;;;3.09;78.27;100999.56;10497979;28;20429;-59
2022/01/16 07:28:31;;;;;;;13.30;11.27;;;;;;;3.08;77.24;100976.78;10489913;28;20058;-60
2022/01/16 07:33:32;;;;;;;13.35;11.57;;;;;;;3.09;75.90;100991.66;10485025;28;20050;-60
2022/01/16 07:38:33;;;;;;;14.32;11.20;;;;;;;3.07;76.49;101006.63;10490108;28;20495;-60
2022/01/16 07:43:35;;;;;;;11.15;8.95;;;;;;;3.01;75.52;101017.38;10484450;28;20193;-60
2022/01/16 07:48:36;;;;;;;8.07;6.90;;;;;;;2.89;74.94;101038.88;10475263;28;20211;-59
2022/01/16 07:53:38;;;;;;;9.02;7.40;;;;;;;2.95;75.58;101028.97;10488749;28;20193;-59
2022/01/16 07:58:41;;;;;;;9.23;8.02;;;;;;;3.07;74.52;101032.94;10491522;28;20058;-60
2022/01/16 08:03:43;;;;;;;10.60;8.48;;;;;;;3.17;74.33;101036.94;10492347;28;20541;-60
2022/01/16 08:08:44;;;;;;;8.77;7.88;;;;;;;3.10;74.96;101032.81;10491550;28;20047;-60
2022/01/16 08:13:46;;;;;;;8.95;7.18;;;;;;;2.85;75.80;101047.78;10486992;28;20212;-60
2022/01/16 08:18:47;;;;;;;10.85;8.23;;;;;;;2.79;76.60;101043.59;10493023;28;20072;-61
2022/01/16 08:23:49;;;;;;;9.98;8.98;;;;;;;2.81;77.21;101045.28;10489051;28;20483;-60
2022/01/16 08:28:50;;;;;;;12.30;10.48;;;;;;;2.96;77.23;101050.91;10489816;28;20499;-59
2022/01/16 08:33:51;;;;;;;11.75;9.77;;;;;;;2.99;76.98;101025.34;10487668;28;20060;-59
2022/01/16 08:38:54;;;;;;;11.82;10.50;;;;;;;3.05;77.15;101029.53;10492995;28;20473;-59
2022/01/16 08:43:55;;;;;;;13.32;11.50;;;;;;;3.20;77.57;101038.63;10490350;28;20048;-60
2022/01/16 08:48:57;;;;;;;16.23;12.10;;;;;;;3.06;77.97;101027.75;10490571;28;20135;-60
2022/01/16 08:53:58;;;;;;;13.52;11.23;;;;;;;3.24;78.91;101049.88;10493210;28;20048;-60
2022/01/16 08:59:00;;;;;;;16.33;12.60;;;;;;;3.24;79.12;101070.94;10478683;28;20048;-59
2022/01/16 09:04:01;;;;;;;17.90;13.70;;;;;;;3.19;79.39;101077.22;10474382;28;20236;-61
2022/01/16 09:09:03;;;;;;;18.13;13.68;;;;;;;3.09;79.90;101077.59;10479316;28;20514;-59
2022/01/16 09:14:04;;;;;;;17.08;13.95;;;;;;;3.15;80.69;101088.78;10465626;28;20063;-59
2022/01/16 09:19:07;;;;;;;20.83;15.07;;;;;;;2.99;80.74;101092.88;10475872;28;20044;-58
2022/01/16 09:24:09;;;;;;;22.17;15.57;;;;;;;3.05;81.44;101092.66;10479063;28;20052;-59
2022/01/16 09:29:10;;;;;;;20.33;15.27;;;;;;;2.96;81.29;101090.34;10482962;28;20158;-59
2022/01/16 09:34:11;;;;;;;23.75;17.88;;;;;;;2.92;81.57;101107.16;10475704;28;20060;-59
2022/01/16 09:39:13;;;;;;;23.50;16.67;;;;;;;2.79;81.65;101097.06;10485564;28;20059;-60
2022/01/16 09:44:17;;;;;;;24.05;17.38;;;;;;;2.85;81.58;101095.13;10488029;28;20056;-60
2022/01/16 09:49:18;;;;;;;22.90;17.77;;;;;;;3.08;81.66;101113.59;10483259;28;20071;-60
2022/01/16 09:54:21;;;;;;;23.00;17.40;;;;;;;3.17;81.18;101108.00;10487468;28;20044;-59
2022/01/16 09:59:23;;;;;;;26.38;17.73;;;;;;;3.19;80.46;101129.00;10487537;28;20044;-59
2022/01/16 10:04:37;;;;;;;24.77;18.48;;;;;;;3.30;80.60;101123.34;10469717;28;21529;-60
2022/01/16 10:09:41;;;;;;;26.35;18.80;;;;;;;3.41;79.63;101126.44;10492125;28;20353;-60
2022/01/16 10:14:49;;;;;;;23.70;19.25;;;;;;;3.52;79.65;101126.88;10495164;28;20052;-60
2022/01/16 10:20:05;;;;;;;26.02;18.80;;;;;;;3.36;79.53;101123.09;10501429;28;20039;-60
2022/01/16 10:25:07;;;;;;;23.55;17.70;;;;;;;3.31;79.85;101109.28;10480171;28;20048;-61
2022/01/16 10:30:14;;;;;;;27.23;18.30;;;;;;;3.42;79.88;101120.25;10494627;28;20052;-60
2022/01/16 10:35:20;;;;;;;27.20;18.88;;;;;;;3.40;79.74;101119.44;10480058;28;20131;-59
2022/01/16 10:40:30;;;;;;;26.52;18.65;;;;;;;3.33;79.94;101107.44;10491236;28;20054;-58
2022/01/16 10:45:33;;;;;;;25.48;18.73;;;;;;;3.23;79.98;101132.34;10497875;28;20183;-58
2022/01/16 10:50:44;;;;;;;26.80;19.58;;;;;;;3.22;80.52;101115.72;10494357;28;20051;-60
2022/01/16 10:55:48;;;;;;;24.35;18.17;;;;;;;3.07;81.00;101117.13;10473157;28;20225;-59
2022/01/16 11:00:54;;;;;;;27.70;19.33;;;;;;;3.10;81.08;101119.63;10493602;28;20051;-62
2022/01/16 11:05:56;;;;;;;29.08;21.85;;;;;;;2.96;81.30;101119.28;10492855;28;20044;-59
2022/01/16 11:10:59;;;;;;;26.05;18.60;;;;;;;3.10;80.04;101122.28;10489000;28;20054;-59
2022/01/16 11:16:10;;;;;;;28.02;18.42;;;;;;;3.05;80.09;101116.34;10494366;28;20062;-59
2022/01/16 11:26:14;;;;;;;29.77;22.98;;;;;;;2.86;81.83;101120.50;10494024;28;20040;-59
2022/01/16 11:31:16;;;;;;;24.38;17.20;;;;;;;3.00;81.56;101120.88;10490547;28;20048;-59
2022/01/16 11:36:23;;;;;;;24.58;16.98;;;;;;;2.95;82.14;101113.16;10494498;28;20056;-59
2022/01/16 11:41:40;;;;;;;21.85;17.33;;;;;;;3.21;81.10;101118.41;10492128;28;20051;-60
2022/01/16 11:46:48;;;;;;;25.52;17.15;;;;;;;3.13;80.14;101110.78;10472856;28;20050;-62
2022/01/16 11:51:52;;;;;;;27.48;19.60;;;;;;;3.19;79.59;101127.19;10483988;28;20356;-59
2022/01/16 11:57:17;;;;;;;24.88;17.45;;;;;;;3.07;79.65;101127.66;10495110;28;20143;-60
2022/01/16 12:02:24;;;;;;;27.52;18.55;;;;;;;3.17;79.15;101134.31;10494439;28;20906;-60
2022/01/16 12:07:34;;;;;;;26.85;18.40;;;;;;;3.18;79.22;101138.66;10492124;28;20044;-61
2022/01/16 12:12:35;;;;;;;24.77;17.25;;;;;;;3.29;78.98;101145.31;10491467;28;20044;-60
2022/01/16 12:17:39;;;;;;;22.58;17.40;;;;;;;3.38;78.71;101138.84;10492178;28;21139;-60
2022/01/16 12:23:04;;;;;;;25.20;17.75;;;;;;;3.46;77.50;101119.22;10493198;28;20055;-61
2022/01/16 12:28:26;;;;;;;26.08;16.80;;;;;;;3.14;78.30;101116.00;10472829;28;20047;-61
2022/01/16 12:33:42;;;;;;;26.35;18.08;;;;;;;3.15;79.15;101125.63;10488571;28;20060;-59
2022/01/16 12:39:04;;;;;;;24.30;16.95;;;;;;;3.19;79.05;101129.84;10469033;28;20042;-60
2022/01/16 12:44:12;;;;;;;26.48;17.95;;;;;;;3.27;78.69;101126.06;10488755;28;20050;-59
2022/01/16 12:49:29;;;;;;;23.23;16.55;;;;;;;3.16;78.53;101103.63;10483580;28;20047;-58
2022/01/16 12:54:31;;;;;;;23.75;16.60;;;;;;;3.42;78.15;101107.09;10490147;28;20048;-61
2022/01/16 12:59:36;;;;;;;22.70;15.90;;;;;;;3.50;77.95;101114.72;10492001;28;20389;-62
2022/01/16 13:04:40;;;;;;;23.52;18.13;;;;;;;4.70;73.48;101106.44;10486497;28;20137;-58
2022/01/16 13:10:02;;;;;;;21.38;16.27;;;;;;;4.01;74.98;101115.41;10477111;28;20055;-61
2022/01/16 13:15:04;;;;;;;26.52;19.15;;;;;;;3.83;75.78;101107.31;10481954;28;20545;-61
2022/01/16 13:20:14;;;;;;;24.10;17.45;;;;;;;3.95;76.19;101129.69;10476087;28;20405;-60
2022/01/16 13:25:16;;;;;;;23.02;16.33;;;;;;;3.80;76.31;101131.13;10481201;28;20490;-60
2022/01/16 13:30:26;;;;;;;22.02;16.90;;;;;;;3.75;76.28;101129.59;10471651;28;20048;-59
2022/01/16 13:35:30;;;;;;;21.65;15.65;;;;;;;3.76;76.29;101150.59;10485393;28;20036;-60
2022/01/16 13:40:31;;;;;;;22.80;16.73;;;;;;;3.72;76.68;101131.44;10477971;28;20052;-60
2022/01/16 13:45:41;;;;;;;21.38;15.60;;;;;;;3.83;76.78;101138.91;10473158;28;20429;-61
2022/01/16 13:50:51;;;;;;;22.05;16.67;;;;;;;3.85;76.73;101144.13;10491902;28;20127;-61
2022/01/16 13:55:59;;;;;;;21.58;15.50;;;;;;;3.93;76.67;101128.03;10488419;28;20057;-61
2022/01/16 14:01:13;;;;;;;21.70;15.57;;;;;;;4.01;76.83;101121.53;10493411;28;20044;-60
2022/01/16 14:06:16;;;;;;;23.73;16.63;;;;;;;4.17;76.54;101134.09;10492611;28;20121;-61
2022/01/16 14:11:20;;;;;;;23.48;16.70;;;;;;;4.06;77.07;101145.06;10490420;28;20048;-61
2022/01/16 14:16:33;;;;;;;19.90;14.57;;;;;;;4.03;77.41;101146.03;10487453;28;20422;-60
2022/01/16 14:22:10;;;;;;;21.48;16.98;;;;;;;4.07;77.87;101165.25;10496391;28;20048;-61
2022/01/16 14:27:22;;;;;;;22.85;15.98;;;;;;;4.14;77.52;101157.94;10489293;28;20438;-62
2022/01/16 14:32:24;;;;;;;19.42;14.82;;;;;;;4.03;77.21;101145.19;10486253;28;20041;-61
2022/01/16 14:37:28;;;;;;;18.73;14.82;;;;;;;4.07;77.51;101173.16;10477080;28;20044;-60
2022/01/16 14:42:41;;;;;;;18.83;15.68;;;;;;;4.07;77.44;101183.69;10490302;28;20058;-61
2022/01/16 14:47:43;;;;;;;21.00;14.95;;;;;;;4.03;77.62;101200.53;10469099;28;20132;-61
2022/01/16 14:52:46;;;;;;;19.35;15.10;;;;;;;3.84;78.21;101177.53;10485665;28;20063;-60
2022/01/16 14:57:47;;;;;;;20.15;14.68;;;;;;;4.03;78.31;101211.91;10485223;28;20426;-60
2022/01/16 15:02:49;;;;;;;20.35;15.50;;;;;;;3.89;78.02;101204.53;10491621;28;20494;-60
2022/01/16 15:07:50;;;;;;;19.85;14.90;;;;;;;4.02;78.23;101222.50;10473866;28;20054;-59
2022/01/16 15:12:52;;;;;;;20.77;15.68;;;;;;;4.01;78.18;101220.81;10480557;28;20494;-60
2022/01/16 15:17:57;;;;;;;19.58;14.73;;;;;;;3.78;78.34;101192.66;10489205;28;20477;-61
2022/01/16 15:22:59;;;;;;;22.02;16.45;;;;;;;3.77;79.30;101223.44;10473379;28;20486;-60
2022/01/16 15:28:00;;;;;;;19.00;15.02;;;;;;;3.94;78.66;101229.84;10484608;28;20422;-61
2022/01/16 15:33:02;;;;;;;17.95;14.50;;;;;;;4.00;78.01;101234.88;10469905;28;20139;-61
2022/01/16 15:38:04;;;;;;;19.95;15.45;;;;;;;3.97;78.43;101242.91;10491306;28;20044;-61
2022/01/16 15:43:08;;;;;;;24.33;16.02;;;;;;;4.04;78.34;101249.69;10479787;28;21580;-60
2022/01/16 15:48:10;;;;;;;23.20;16.85;;;;;;;4.07;77.68;101257.47;10495786;28;20048;-62
2022/01/16 15:53:11;;;;;;;17.23;14.35;;;;;;;4.10;77.96;101259.97;10493767;28;20066;-63
2022/01/16 15:58:14;;;;;;;22.73;16.92;;;;;;;4.16;76.82;101262.38;10489665;28;20568;-62
2022/01/16 16:03:15;;;;;;;23.02;17.33;;;;;;;4.09;77.12;101266.16;10470726;28;20589;-61
2022/01/16 16:08:16;;;;;;;21.63;16.05;;;;;;;4.00;77.74;101279.69;10467186;28;20044;-62
2022/01/16 16:13:18;;;;;;;22.73;17.63;;;;;;;3.84;78.00;101261.81;10493295;28;20546;-61
2022/01/16 16:18:19;;;;;;;21.90;16.52;;;;;;;3.93;78.06;101289.56;10474504;28;20045;-61
2022/01/16 16:23:21;;;;;;;23.30;17.45;;;;;;;3.87;78.47;101297.69;10482739;28;20051;-61
2022/01/16 16:28:22;;;;;;;21.83;15.88;;;;;;;3.93;78.42;101304.53;10487017;28;20043;-61
2022/01/16 16:33:24;;;;;;;23.20;17.70;;;;;;;3.87;78.95;101314.38;10487466;28;20052;-62
2022/01/16 16:38:26;;;;;;;25.23;17.50;;;;;;;3.86;78.86;101312.66;10484496;28;20045;-62
2022/01/16 16:43:28;;;;;;;20.50;16.73;;;;;;;3.98;78.58;101311.34;10472810;28;20131;-62
2022/01/16 16:48:29;;;;;;;24.02;18.33;;;;;;;3.72;79.46;101310.50;10489556;28;20055;-61
2022/01/16 16:53:32;;;;;;;26.30;19.45;;;;;;;3.77;80.07;101323.50;10487252;28;20361;-61
2022/01/16 16:58:44;;;;;;;25.20;19.17;;;;;;;3.80;80.17;101339.22;10495593;28;20047;-61
2022/01/16 17:03:45;;;;;;;25.65;18.63;;;;;;;3.64;80.41;101311.69;10501491;28;20044;-60
2022/01/16 17:08:46;;;;;;;29.10;20.13;;;;;;;3.71;80.48;101319.31;10500301;28;21137;-61
2022/01/16 17:13:50;;;;;;;25.90;18.55;;;;;;;3.72;80.98;101320.16;10491906;28;20573;-60
2022/01/16 17:18:55;;;;;;;26.42;19.00;;;;;;;3.56;81.42;101321.59;10476440;28;20055;-62
2022/01/16 17:23:56;;;;;;;19.70;14.57;;;;;;;3.42;82.75;101338.72;10491305;28;20054;-61
2022/01/16 17:28:58;;;;;;;24.63;18.35;;;;;;;3.42;82.66;101327.34;10493274;28;20077;-60
2022/01/16 17:33:59;;;;;;;24.20;18.95;;;;;;;3.69;81.79;101329.06;10497602;28;20058;-60
2022/01/16 17:39:00;;;;;;;28.80;20.40;;;;;;;3.65;81.72;101334.47;10495706;28;20050;-61
2022/01/16 17:44:07;;;;;;;29.27;21.35;;;;;;;3.42;82.45;101327.34;10494158;28;20109;-63
2022/01/16 17:49:08;;;;;;;29.63;20.23;;;;;;;3.45;82.78;101349.19;10496990;28;20063;-61
2022/01/16 17:54:10;;;;;;;26.10;19.55;;;;;;;3.59;82.58;101350.44;10499039;28;20055;-60
2022/01/16 17:59:11;;;;;;;28.05;19.85;;;;;;;3.57;81.89;101357.56;10500051;28;21329;-61
2022/01/16 18:04:13;;;;;;;27.55;20.08;;;;;;;3.43;82.46;101350.13;10501617;28;20056;-61
2022/01/16 18:09:15;;;;;;;23.52;17.90;;;;;;;3.51;82.52;101363.88;10496722;28;20552;-60
2022/01/16 18:14:17;;;;;;;27.38;18.95;;;;;;;3.58;82.65;101380.34;10480232;28;20065;-59
2022/01/16 18:19:18;;;;;;;27.52;20.67;;;;;;;3.50;82.91;101373.56;10496222;28;20062;-59
2022/01/16 18:24:20;;;;;;;28.10;19.70;;;;;;;3.39;84.50;101380.94;10497620;28;20062;-60
2022/01/16 18:29:22;;;;;;;26.35;19.90;;;;;;;3.29;85.88;101372.50;10494095;28;20110;-61
2022/01/16 18:34:24;;;;;;;28.02;20.70;;;;;;;3.40;85.41;101376.56;10504826;28;20641;-64
2022/01/16 18:39:26;;;;;;;25.05;18.77;;;;;;;3.41;85.87;101373.88;10487308;28;20052;-61
2022/01/16 18:44:27;;;;;;;26.90;19.92;;;;;;;3.38;85.73;101381.00;10508957;28;20505;-60
2022/01/16 18:49:30;;;;;;;25.50;18.75;;;;;;;3.31;86.26;101385.59;10499406;28;20158;-61
2022/01/16 18:54:32;;;;;;;28.63;19.05;;;;;;;3.42;85.59;101396.63;10498243;28;20073;-60
2022/01/16 18:59:33;;;;;;;25.95;18.85;;;;;;;3.30;86.09;101392.66;10502112;28;20274;-60
2022/01/16 19:04:35;;;;;;;24.65;19.25;;;;;;;3.42;86.11;101412.41;10506689;28;20051;-60
2022/01/16 19:09:36;;;;;;;24.10;18.95;;;;;;;3.36;86.31;101399.47;10501076;28;20125;-61
2022/01/16 19:14:38;;;;;;;25.13;19.25;;;;;;;3.42;85.85;101412.41;10499936;28;20051;-60
2022/01/16 19:19:39;;;;;;;26.33;19.35;;;;;;;3.38;85.83;101405.56;10501523;28;20462;-60
2022/01/16 19:24:41;;;;;;;23.23;18.48;;;;;;;3.41;85.98;101417.72;10500661;28;20051;-61
2022/01/16 19:29:42;;;;;;;23.88;17.67;;;;;;;3.59;85.76;101429.44;10501291;28;20185;-60
2022/01/16 19:34:44;;;;;;;20.90;16.00;;;;;;;3.50;84.49;101396.41;10503046;28;20320;-61
2022/01/16 19:39:46;;;;;;;21.10;15.90;;;;;;;3.55;84.35;101397.09;10498422;28;20044;-61
2022/01/16 19:44:47;;;;;;;22.88;15.50;;;;;;;3.53;84.42;101410.31;10497460;28;20058;-61
2022/01/16 19:49:48;;;;;;;22.13;14.85;;;;;;;3.44;84.50;101405.34;10480162;28;20055;-63
2022/01/16 19:54:50;;;;;;;20.70;16.40;;;;;;;3.51;84.12;101396.34;10497412;28;20126;-61
2022/01/16 19:59:51;;;;;;;19.45;16.40;;;;;;;3.51;84.38;101377.94;10496867;28;20052;-61
2022/01/16 20:04:53;;;;;;;16.73;14.23;;;;;;;3.34;84.46;101377.59;10489932;28;20048;-62
2022/01/16 20:09:54;;;;;;;18.50;15.82;;;;;;;3.43;84.57;101395.72;10492028;28;20066;-62
2022/01/16 20:14:56;;;;;;;18.10;14.20;;;;;;;3.46;84.25;101432.47;10493397;28;20050;-61
2022/01/16 20:19:57;;;;;;;16.38;14.07;;;;;;;3.49;83.75;101432.38;10495178;28;20394;-61
2022/01/16 20:24:58;;;;;;;18.50;14.52;;;;;;;3.58;83.61;101430.38;10492167;28;20054;-61
2022/01/16 20:30:00;;;;;;;19.17;14.52;;;;;;;3.64;83.39;101427.53;10477641;28;20069;-61
2022/01/16 20:35:02;;;;;;;17.83;15.18;;;;;;;3.93;84.93;101421.28;10487334;28;20113;-60
2022/01/16 20:40:04;;;;;;;16.10;14.07;;;;;;;3.88;82.40;101410.91;10491964;28;20058;-62
2022/01/16 20:45:07;;;;;;;17.52;14.02;;;;;;;3.68;83.19;101413.38;10492218;28;20043;-61
2022/01/16 20:50:09;;;;;;;18.55;14.88;;;;;;;3.71;83.15;101461.53;10491712;28;20050;-62
2022/01/16 20:55:11;;;;;;;16.92;14.35;;;;;;;3.71;83.32;101436.97;10481368;28;21815;-62
2022/01/16 21:00:13;;;;;;;15.68;13.85;;;;;;;3.68;83.78;101437.91;10491887;28;20694;-60
2022/01/16 21:05:15;;;;;;;14.88;13.13;;;;;;;3.78;83.06;101429.72;10497163;28;20056;-60
2022/01/16 21:10:16;;;;;;;15.73;13.65;;;;;;;3.70;82.76;101425.56;10489998;28;20666;-61
2022/01/16 21:15:17;;;;;;;15.40;13.90;;;;;;;3.82;82.82;101448.00;10497463;28;20491;-60
2022/01/16 21:20:19;;;;;;;15.50;13.40;;;;;;;3.89;82.20;101446.03;10499095;28;20058;-61
2022/01/16 21:25:20;;;;;;;16.63;13.75;;;;;;;3.88;81.85;101460.97;10503447;28;20054;-60
2022/01/16 21:30:21;;;;;;;15.07;13.45;;;;;;;3.86;81.84;101454.03;10497854;28;20052;-64
2022/01/16 21:35:23;;;;;;;15.88;14.18;;;;;;;3.92;81.65;101461.72;10501771;28;20620;-61
2022/01/16 21:40:26;;;;;;;16.83;13.25;;;;;;;3.88;81.92;101468.84;10476242;28;20056;-59
2022/01/16 21:45:27;;;;;;;16.00;13.35;;;;;;;3.89;82.01;101485.56;10487255;28;20036;-59
2022/01/16 21:50:31;;;;;;;13.20;11.80;;;;;;;4.03;81.28;101482.44;10491948;28;20056;-59
2022/01/16 21:55:32;;;;;;;14.18;12.63;;;;;;;4.05;81.24;101491.16;10483948;28;20055;-59
2022/01/16 22:00:34;;;;;;;13.52;11.30;;;;;;;3.93;81.30;101465.22;10484744;28;20044;-59
2022/01/16 22:05:35;;;;;;;12.95;11.02;;;;;;;3.87;80.77;101463.63;10494741;28;20051;-60
2022/01/16 22:10:37;;;;;;;11.75;10.55;;;;;;;3.96;81.11;101492.31;10500274;28;20050;-59
2022/01/16 22:15:38;;;;;;;13.80;11.82;;;;;;;3.97;80.76;101486.13;10492162;28;20520;-59
2022/01/16 22:20:39;;;;;;;13.45;11.40;;;;;;;3.97;80.81;101488.78;10493932;28;20048;-59
2022/01/16 22:25:41;;;;;;;11.95;10.38;;;;;;;3.87;80.34;101498.78;10496937;28;20054;-59
2022/01/16 22:30:47;;;;;;;12.35;10.50;;;;;;;3.84;80.79;101519.94;10498900;28;20517;-59
2022/01/16 22:35:49;;;;;;;12.55;10.38;;;;;;;3.78;80.82;101482.38;10496517;28;20066;-60
2022/01/16 22:40:51;;;;;;;11.15;9.95;;;;;;;3.86;80.64;101496.19;10499686;28;20070;-59
2022/01/16 22:45:55;;;;;;;12.48;11.18;;;;;;;3.84;80.40;101522.59;10494827;28;20727;-60
2022/01/16 22:50:57;;;;;;;10.50;9.50;;;;;;;3.80;81.04;101528.84;10488543;28;20628;-60
2022/01/16 22:55:59;;;;;;;11.07;9.88;;;;;;;3.99;80.75;101523.81;10480684;22;20056;-71
2022/01/16 23:01:12;;;;;;;10.48;9.43;;;;;;;4.05;80.37;101521.03;10452724;28;20041;-73
2022/01/16 23:06:14;;;;;;;11.73;10.20;;;;;;;4.03;79.97;101516.69;10477440;28;20064;-73
2022/01/16 23:11:15;;;;;;;11.43;9.15;;;;;;;4.04;80.25;101531.59;10484518;28;20048;-72
2022/01/16 23:16:18;;;;;;;10.57;9.27;;;;;;;3.99;79.93;101541.41;10494328;27;20388;-72
2022/01/16 23:21:19;;;;;;;10.00;9.00;;;;;;;3.94;80.40;101535.44;10487601;28;20051;-73
2022/01/16 23:26:21;;;;;;;11.82;10.05;;;;;;;3.93;80.61;101539.00;10487778;28;20093;-74
2022/01/16 23:31:22;;;;;;;11.05;9.82;;;;;;;3.96;80.18;101533.63;10493716;28;20075;-73
2022/01/16 23:36:23;;;;;;;11.27;9.73;;;;;;;3.94;80.19;101527.53;10493402;28;20589;-73
2022/01/16 23:41:25;;;;;;;10.35;9.25;;;;;;;3.94;79.66;101525.75;10491298;28;20066;-73
2022/01/16 23:46:26;;;;;;;11.15;9.93;;;;;;;3.83;80.83;101530.53;10487133;28;20045;-72